createdAt,value
2022-10-08T00:01:08.493Z,101682.34
2022-10-08T00:03:40.624Z,101668.81
2022-10-08T00:06:12.341Z,101669.00
2022-10-08T00:08:41.311Z,101664.56
2022-10-08T00:11:09.956Z,101673.59
2022-10-08T00:13:41.653Z,101674.97
2022-10-08T00:18:51.944Z,101678.22
2022-10-08T00:21:33.468Z,101671.06
2022-10-08T00:24:01.585Z,101674.09
2022-10-08T00:26:31.222Z,101673.97
2022-10-08T00:28:59.647Z,101670.03
2022-10-08T00:31:37.858Z,101679.75
2022-10-08T00:34:08.200Z,101691.72
2022-10-08T00:36:37.183Z,101683.19
2022-10-08T00:39:16.035Z,101673.97
2022-10-08T00:41:44.829Z,101678.91
2022-10-08T00:44:54.876Z,101678.72
2022-10-08T00:47:47.448Z,101676.31
2022-10-08T00:50:24.791Z,101674.63
2022-10-08T00:53:04.302Z,101676.66
2022-10-08T00:58:20.171Z,101675.97
2022-10-08T01:00:58.543Z,101671.19
2022-10-08T01:03:25.112Z,101671.19
2022-10-08T01:09:01.560Z,101668.47
2022-10-08T01:11:37.343Z,101668.31
2022-10-08T01:14:23.057Z,101677.53
2022-10-08T01:16:49.449Z,101674.94
2022-10-08T01:19:25.672Z,101677.34
2022-10-08T01:22:10.553Z,101678.53
2022-10-08T01:25:06.474Z,101676.13
2022-10-08T01:27:35.001Z,101687.91
2022-10-08T01:33:12.420Z,101683.78
2022-10-08T01:35:44.679Z,101682.88
2022-10-08T01:38:16.146Z,101685.56
2022-10-08T01:40:44.348Z,101684.22
2022-10-08T01:43:13.400Z,101685.03
2022-10-08T01:45:45.990Z,101676.31
2022-10-08T01:48:15.373Z,101682.28
2022-10-08T01:50:47.915Z,101688.88
2022-10-08T01:53:16.282Z,101689.06
2022-10-08T01:55:47.572Z,101689.38
2022-10-08T01:58:17.636Z,101685.97
2022-10-08T02:00:45.777Z,101693.25
2022-10-08T02:03:12.414Z,101684.69
2022-10-08T02:05:41.821Z,101687.44
2022-10-08T02:08:08.312Z,101699.53
2022-10-08T02:10:34.853Z,101700.00
2022-10-08T02:13:01.367Z,101695.03
2022-10-08T02:16:17.331Z,101698.75
2022-10-08T02:18:53.398Z,101695.69
2022-10-08T02:21:24.552Z,101694.28
2022-10-08T02:26:40.538Z,101689.78
2022-10-08T02:29:15.687Z,101689.09
2022-10-08T02:31:49.812Z,101695.56
2022-10-08T02:34:21.143Z,101704.75
2022-10-08T02:37:01.804Z,101702.19
2022-10-08T02:39:29.925Z,101694.00
2022-10-08T02:42:01.250Z,101703.25
2022-10-08T02:44:34.611Z,101697.13
2022-10-08T02:47:04.346Z,101701.72
2022-10-08T02:52:20.467Z,101699.50
2022-10-08T02:54:48.306Z,101709.28
2022-10-08T02:57:18.514Z,101703.81
2022-10-08T02:59:45.651Z,101698.00
2022-10-08T03:04:58.714Z,101713.69
2022-10-08T03:07:31.102Z,101716.28
2022-10-08T03:09:58.342Z,101716.41
2022-10-08T03:12:27.882Z,101719.63
2022-10-08T03:14:54.378Z,101721.50
2022-10-08T03:17:30.579Z,101724.72
2022-10-08T03:19:57.558Z,101731.31
2022-10-08T03:27:45.953Z,101730.88
2022-10-08T03:30:13.050Z,101737.00
2022-10-08T03:32:39.544Z,101734.97
2022-10-08T03:35:06.088Z,101733.13
2022-10-08T03:37:32.590Z,101736.38
2022-10-08T03:39:59.059Z,101741.34
2022-10-08T03:42:25.644Z,101745.25
2022-10-08T03:47:41.072Z,101749.09
2022-10-08T03:50:08.001Z,101746.91
2022-10-08T03:52:34.514Z,101743.00
2022-10-08T03:55:00.999Z,101746.09
2022-10-08T03:57:27.501Z,101753.50
2022-10-08T03:59:54.264Z,101756.22
2022-10-08T04:05:04.805Z,101760.56
2022-10-08T04:07:31.273Z,101756.97
2022-10-08T04:09:57.775Z,101763.13
2022-10-08T04:12:24.364Z,101757.84
2022-10-08T04:14:50.819Z,101753.41
2022-10-08T04:17:17.643Z,101752.16
2022-10-08T04:19:44.129Z,101755.91
2022-10-08T04:22:10.609Z,101755.38
2022-10-08T04:24:37.374Z,101760.75
2022-10-08T04:27:03.927Z,101755.66
2022-10-08T04:29:30.499Z,101761.19
2022-10-08T04:31:57.005Z,101767.09
2022-10-08T04:34:23.518Z,101769.59
2022-10-08T04:36:50.020Z,101776.38
2022-10-08T04:39:16.572Z,101779.41
2022-10-08T04:41:43.132Z,101771.41
2022-10-08T04:44:09.615Z,101761.66
2022-10-08T04:46:36.197Z,101778.03
2022-10-08T04:49:02.774Z,101774.44
2022-10-08T04:51:29.795Z,101775.78
2022-10-08T04:56:37.767Z,101785.09
2022-10-08T04:59:04.664Z,101786.97
2022-10-08T05:01:31.251Z,101796.94
2022-10-08T05:03:58.974Z,101805.09
2022-10-08T05:06:28.085Z,101803.94
2022-10-08T05:08:54.807Z,101810.97
2022-10-08T05:11:24.590Z,101810.63
2022-10-08T05:13:55.299Z,101813.22
2022-10-08T05:16:22.507Z,101818.69
2022-10-08T05:18:51.677Z,101812.53
2022-10-08T05:21:21.628Z,101820.00
2022-10-08T05:23:48.422Z,101821.28
2022-10-08T05:26:19.825Z,101824.84
2022-10-08T05:28:47.737Z,101826.78
2022-10-08T05:31:15.555Z,101826.78
2022-10-08T05:33:42.251Z,101827.63
2022-10-08T05:36:14.969Z,101824.91
2022-10-08T05:38:43.550Z,101836.00
2022-10-08T05:41:16.741Z,101842.13
2022-10-08T05:43:51.532Z,101844.00
2022-10-08T05:46:18.528Z,101847.97
2022-10-08T05:48:45.628Z,101849.38
2022-10-08T05:51:15.988Z,101839.72
2022-10-08T05:53:47.228Z,101849.53
2022-10-08T05:56:15.046Z,101855.22
2022-10-08T05:58:42.671Z,101860.84
2022-10-08T06:01:20.345Z,101862.56
2022-10-08T06:04:07.837Z,101864.13
2022-10-08T06:06:36.704Z,101877.91
2022-10-08T06:09:04.083Z,101874.72
2022-10-08T06:11:32.810Z,101879.88
2022-10-08T06:14:04.703Z,101880.88
2022-10-08T06:16:31.285Z,101890.06
2022-10-08T06:21:38.442Z,101896.44
2022-10-08T06:24:16.236Z,101901.59
2022-10-08T06:26:44.025Z,101908.06
2022-10-08T06:29:18.008Z,101906.44
2022-10-08T06:31:45.627Z,101919.56
2022-10-08T06:34:12.364Z,101917.44
2022-10-08T06:36:39.452Z,101929.28
2022-10-08T06:39:12.603Z,101930.34
2022-10-08T06:41:39.089Z,101934.66
2022-10-08T06:44:07.796Z,101939.06
2022-10-08T06:49:15.706Z,101952.31
2022-10-08T06:51:42.190Z,101955.47
2022-10-08T06:54:08.935Z,101957.19
2022-10-08T06:56:37.406Z,101948.00
2022-10-08T06:59:04.901Z,101952.91
2022-10-08T07:04:11.891Z,101961.72
2022-10-08T07:06:38.429Z,101961.50
2022-10-08T07:09:07.110Z,101958.81
2022-10-08T07:11:41.425Z,101963.22
2022-10-08T07:14:07.936Z,101968.41
2022-10-08T07:16:34.484Z,101974.31
2022-10-08T07:24:25.051Z,101985.59
2022-10-08T07:26:51.674Z,101990.66
2022-10-08T07:32:06.503Z,102002.34
2022-10-08T07:34:33.004Z,102000.19
2022-10-08T07:36:59.500Z,102007.75
2022-10-08T07:39:26.060Z,102017.69
2022-10-08T07:41:52.586Z,102017.00
2022-10-08T07:44:19.467Z,102021.66
2022-10-08T07:46:48.500Z,102014.09
2022-10-08T07:49:19.384Z,102016.66
2022-10-08T07:51:46.357Z,102015.34
2022-10-08T07:54:17.749Z,102028.13
2022-10-08T07:56:44.792Z,102022.97
2022-10-08T07:59:17.945Z,102029.63
2022-10-08T08:04:26.065Z,102039.81
2022-10-08T08:06:52.682Z,102036.94
2022-10-08T08:11:59.851Z,102042.97
2022-10-08T08:19:48.030Z,102057.38
2022-10-08T08:22:14.666Z,102064.50
2022-10-08T08:29:46.801Z,102084.16
2022-10-08T08:32:28.431Z,102080.28
2022-10-08T08:34:55.279Z,102086.84
2022-10-08T08:37:21.802Z,102093.00
2022-10-08T08:39:56.152Z,102096.53
2022-10-08T08:42:47.042Z,102098.31
2022-10-08T08:45:46.571Z,102104.28
2022-10-08T08:48:23.117Z,102100.78
2022-10-08T08:53:35.209Z,102116.59
2022-10-08T08:56:05.460Z,102120.50
2022-10-08T08:58:42.196Z,102134.81
2022-10-08T09:01:08.698Z,102130.22
2022-10-08T09:03:44.781Z,102125.66
2022-10-08T09:06:17.322Z,102136.91
2022-10-08T09:08:48.440Z,102136.59
2022-10-08T09:11:16.717Z,102134.50
2022-10-08T09:13:57.929Z,102137.53
2022-10-08T09:16:27.300Z,102142.97
2022-10-08T09:18:54.623Z,102147.50
2022-10-08T09:21:21.251Z,102157.63
2022-10-08T09:23:48.053Z,102160.09
2022-10-08T09:26:29.539Z,102163.59
2022-10-08T09:29:00.746Z,102152.31
2022-10-08T09:31:30.289Z,102164.63
2022-10-08T09:34:21.503Z,102161.47
2022-10-08T09:37:01.191Z,102163.50
2022-10-08T09:39:30.281Z,102164.69
2022-10-08T09:42:23.254Z,102171.63
2022-10-08T09:44:51.895Z,102171.63
2022-10-08T09:47:20.397Z,102181.56
2022-10-08T09:49:50.070Z,102187.00
2022-10-08T09:55:10.399Z,102186.88
2022-10-08T09:57:44.235Z,102196.66
2022-10-08T10:00:27.293Z,102186.06
2022-10-08T10:05:36.890Z,102199.91
2022-10-08T10:08:05.169Z,102193.28
2022-10-08T10:10:39.278Z,102193.97
2022-10-08T10:13:21.563Z,102202.19
2022-10-08T10:15:55.837Z,102204.28
2022-10-08T10:18:30.357Z,102203.47
2022-10-08T10:21:00.183Z,102209.00
2022-10-08T10:23:33.848Z,102212.38
2022-10-08T10:26:06.815Z,102211.34
2022-10-08T10:28:43.551Z,102206.25
2022-10-08T10:31:23.619Z,102213.53
2022-10-08T10:42:31.993Z,102222.25
2022-10-08T10:45:04.387Z,102235.22
2022-10-08T10:47:32.366Z,102234.19
2022-10-08T10:50:00.768Z,102240.81
2022-10-08T10:52:39.325Z,102233.16
2022-10-08T10:55:31.769Z,102235.91
2022-10-08T10:58:30.015Z,102233.84
2022-10-08T11:01:42.201Z,102245.22
2022-10-08T11:04:11.395Z,102246.28
2022-10-08T11:06:49.815Z,102251.72
2022-10-08T11:09:25.264Z,102244.41
2022-10-08T11:11:58.980Z,102249.03
2022-10-08T11:14:53.477Z,102255.88
2022-10-08T11:17:40.717Z,102254.16
2022-10-08T11:20:09.973Z,102265.78
2022-10-08T11:22:48.769Z,102257.28
2022-10-08T11:25:55.204Z,102257.91
2022-10-08T11:28:44.928Z,102260.28
2022-10-08T11:31:48.249Z,102261.78
2022-10-08T11:37:26.531Z,102256.97
2022-10-08T11:39:58.788Z,102260.19
2022-10-08T11:42:36.733Z,102253.97
2022-10-08T11:45:24.160Z,102250.16
2022-10-08T11:50:37.964Z,102255.84
2022-10-08T11:53:10.711Z,102250.56
2022-10-08T11:55:37.917Z,102245.75
2022-10-08T11:58:08.378Z,102248.19
2022-10-08T12:00:40.046Z,102247.81
2022-10-08T12:06:28.623Z,102240.47
2022-10-08T12:11:40.678Z,102246.91
2022-10-08T12:14:13.408Z,102248.81
2022-10-08T12:16:48.950Z,102255.84
2022-10-08T12:19:36.504Z,102258.84
2022-10-08T12:22:15.136Z,102252.00
2022-10-08T12:27:26.567Z,102264.53
2022-10-08T12:30:09.552Z,102252.22
2022-10-08T12:32:42.253Z,102266.59
2022-10-08T12:35:27.178Z,102259.16
2022-10-08T12:38:18.294Z,102270.69
2022-10-08T12:40:52.637Z,102265.16
2022-10-08T12:43:30.272Z,102261.69
2022-10-08T12:46:21.603Z,102264.94
2022-10-08T12:49:03.608Z,102265.63
2022-10-08T12:51:44.143Z,102268.38
2022-10-08T12:54:27.545Z,102271.44
2022-10-08T12:57:01.940Z,102272.19
2022-10-08T12:59:32.012Z,102278.25
2022-10-08T13:01:59.155Z,102275.44
2022-10-08T13:04:29.960Z,102276.38
2022-10-08T13:09:37.038Z,102275.66
2022-10-08T13:15:06.313Z,102270.06
2022-10-08T13:17:34.765Z,102284.91
2022-10-08T13:20:22.229Z,102284.47
2022-10-08T13:25:43.242Z,102277.28
2022-10-08T13:28:15.402Z,102275.09
2022-10-08T13:30:46.583Z,102280.53
2022-10-08T13:36:05.680Z,102291.13
2022-10-08T13:38:43.085Z,102284.59
2022-10-08T13:41:23.523Z,102302.09
2022-10-08T13:43:50.236Z,102296.91
2022-10-08T13:46:16.925Z,102309.78
2022-10-08T13:48:46.142Z,102306.63
2022-10-08T13:51:12.667Z,102305.06
2022-10-08T13:53:46.505Z,102309.25
2022-10-08T13:56:13.585Z,102312.31
2022-10-08T13:58:40.071Z,102316.44
2022-10-08T14:01:06.710Z,102322.28
2022-10-08T14:03:33.247Z,102311.31
2022-10-08T14:05:59.704Z,102312.41
2022-10-08T14:08:33.330Z,102319.56
2022-10-08T14:11:12.390Z,102321.97
2022-10-08T14:13:45.322Z,102316.03
2022-10-08T14:18:57.875Z,102312.31
2022-10-08T14:21:25.785Z,102311.97
2022-10-08T14:23:52.307Z,102313.34
2022-10-08T14:26:19.013Z,102311.03
2022-10-08T14:28:45.592Z,102308.25
2022-10-08T14:31:13.570Z,102308.50
2022-10-08T14:33:42.499Z,102313.69
2022-10-08T14:36:15.604Z,102310.94
2022-10-08T14:38:42.272Z,102325.06
2022-10-08T14:41:08.822Z,102318.44
2022-10-08T14:43:37.374Z,102327.00
2022-10-08T14:48:44.542Z,102324.81
2022-10-08T14:51:12.511Z,102334.63
2022-10-08T14:53:39.279Z,102330.84
2022-10-08T14:56:12.367Z,102335.47
2022-10-08T14:58:39.711Z,102333.59
2022-10-08T15:01:06.450Z,102335.31
2022-10-08T15:03:33.227Z,102332.91
2022-10-08T15:06:00.703Z,102331.69
2022-10-08T15:08:31.189Z,102334.38
2022-10-08T15:13:38.715Z,102336.00
2022-10-08T15:16:09.419Z,102328.53
2022-10-08T15:21:23.109Z,102325.75
2022-10-08T15:23:50.176Z,102344.06
2022-10-08T15:26:18.169Z,102333.28
2022-10-08T15:28:49.970Z,102339.63
2022-10-08T15:31:18.480Z,102342.34
2022-10-08T15:34:00.101Z,102350.88
2022-10-08T15:36:37.782Z,102345.16
2022-10-08T15:41:54.316Z,102341.69
2022-10-08T15:44:23.500Z,102344.47
2022-10-08T15:46:59.118Z,102349.03
2022-10-08T15:52:09.746Z,102350.41
2022-10-08T15:54:37.131Z,102354.56
2022-10-08T15:57:03.881Z,102366.28
2022-10-08T15:59:30.895Z,102363.22
2022-10-08T16:02:05.779Z,102367.66
2022-10-08T16:04:32.658Z,102372.16
2022-10-08T16:06:59.214Z,102368.06
2022-10-08T16:09:25.828Z,102363.59
2022-10-08T16:11:52.397Z,102362.91
2022-10-08T16:14:21.247Z,102369.63
2022-10-08T16:16:48.506Z,102362.06
2022-10-08T16:19:17.455Z,102369.44
2022-10-08T16:21:54.166Z,102372.00
2022-10-08T16:24:20.816Z,102368.25
2022-10-08T16:26:48.706Z,102372.16
2022-10-08T16:29:16.620Z,102376.28
2022-10-08T16:31:44.441Z,102376.41
2022-10-08T16:34:28.078Z,102383.56
2022-10-08T16:36:54.825Z,102384.44
2022-10-08T16:39:24.218Z,102385.63
2022-10-08T16:44:31.383Z,102390.78
2022-10-08T16:46:57.846Z,102395.84
2022-10-08T16:49:27.112Z,102388.94
2022-10-08T16:51:56.134Z,102393.81
2022-10-08T16:54:24.899Z,102393.13
2022-10-08T16:56:51.530Z,102400.16
2022-10-08T16:59:20.642Z,102397.28
2022-10-08T17:01:50.608Z,102404.56
2022-10-08T17:04:18.379Z,102405.53
2022-10-08T17:06:45.532Z,102413.09
2022-10-08T17:09:12.325Z,102409.53
2022-10-08T17:11:39.428Z,102418.47
2022-10-08T17:14:07.698Z,102419.56
2022-10-08T17:16:35.127Z,102425.56
2022-10-08T17:21:55.204Z,102422.56
2022-10-08T17:24:22.130Z,102430.63
2022-10-08T17:26:49.399Z,102430.84
2022-10-08T17:29:15.931Z,102433.34
2022-10-08T17:31:42.894Z,102444.09
2022-10-08T17:34:10.171Z,102446.59
2022-10-08T17:36:38.468Z,102453.06
2022-10-08T17:39:06.566Z,102457.97
2022-10-08T17:41:40.414Z,102461.72
2022-10-08T17:44:08.563Z,102461.34
2022-10-08T17:49:20.516Z,102465.53
2022-10-08T17:51:47.630Z,102465.56
2022-10-08T17:54:21.368Z,102471.28
2022-10-08T17:56:48.566Z,102471.00
2022-10-08T17:59:19.030Z,102471.69
2022-10-08T18:01:49.863Z,102473.59
2022-10-08T18:04:24.074Z,102480.22
2022-10-08T18:06:50.602Z,102469.88
2022-10-08T18:09:19.513Z,102482.41
2022-10-08T18:11:48.958Z,102481.13
2022-10-08T18:14:17.131Z,102479.84
2022-10-08T18:16:47.835Z,102479.25
2022-10-08T18:19:15.168Z,102478.69
2022-10-08T18:27:02.897Z,102486.75
2022-10-08T18:32:09.571Z,102499.81
2022-10-08T18:37:22.152Z,102503.84
2022-10-08T18:42:29.080Z,102504.66
2022-10-08T18:44:55.583Z,102507.66
2022-10-08T18:50:01.136Z,102518.44
2022-10-08T18:55:08.434Z,102521.22
2022-10-08T19:00:23.158Z,102527.69
2022-10-08T19:02:55.106Z,102530.59
2022-10-08T19:05:21.740Z,102526.72
2022-10-08T19:07:48.204Z,102532.91
2022-10-08T19:10:14.684Z,102523.72
2022-10-08T19:12:41.167Z,102527.31
2022-10-08T19:15:07.994Z,102529.88
2022-10-08T19:17:34.707Z,102533.78
2022-10-08T19:20:01.169Z,102540.53
2022-10-08T19:22:27.653Z,102533.19
2022-10-08T19:24:54.226Z,102548.56
2022-10-08T19:27:20.934Z,102542.50
2022-10-08T19:32:27.941Z,102544.34
2022-10-08T19:34:54.428Z,102549.22
2022-10-08T19:37:22.618Z,102551.50
2022-10-08T19:39:53.491Z,102547.47
2022-10-08T19:42:19.953Z,102550.59
2022-10-08T19:44:46.515Z,102546.44
2022-10-08T19:49:57.190Z,102549.88
2022-10-08T19:52:23.723Z,102552.84
2022-10-08T19:54:50.305Z,102555.13
2022-10-08T19:59:57.727Z,102553.78
2022-10-08T20:02:24.297Z,102560.75
2022-10-08T20:04:50.951Z,102565.91
2022-10-08T20:07:17.523Z,102566.03
2022-10-08T20:09:44.059Z,102571.16
2022-10-08T20:14:50.959Z,102573.09
2022-10-08T20:17:18.400Z,102571.66
2022-10-08T20:19:44.882Z,102577.22
2022-10-08T20:22:12.102Z,102573.78
2022-10-08T20:24:38.757Z,102576.72
2022-10-08T20:27:05.341Z,102579.84
2022-10-08T20:29:31.832Z,102578.53
2022-10-08T20:31:59.863Z,102571.59
2022-10-08T20:34:30.815Z,102576.47
2022-10-08T20:37:02.431Z,102583.00
2022-10-08T20:39:29.214Z,102584.16
2022-10-08T20:41:56.045Z,102579.84
2022-10-08T20:49:59.352Z,102579.16
2022-10-08T20:57:47.874Z,102579.34
2022-10-08T21:00:14.702Z,102581.34
2022-10-08T21:02:41.189Z,102576.78
2022-10-08T21:05:07.917Z,102577.91
2022-10-08T21:07:38.188Z,102585.34
2022-10-08T21:10:05.097Z,102578.41
2022-10-08T21:12:32.292Z,102580.78
2022-10-08T21:14:58.774Z,102582.06
2022-10-08T21:17:25.253Z,102588.00
2022-10-08T21:19:51.810Z,102578.50
2022-10-08T21:22:18.288Z,102596.06
2022-10-08T21:24:45.358Z,102594.47
2022-10-08T21:32:34.173Z,102599.66
2022-10-08T21:35:00.833Z,102596.19
2022-10-08T21:37:27.398Z,102597.34
2022-10-08T21:39:53.853Z,102600.16
2022-10-08T21:42:28.333Z,102596.69
2022-10-08T21:44:54.835Z,102597.81
2022-10-08T21:47:25.157Z,102590.78
2022-10-08T21:49:51.668Z,102587.56
2022-10-08T22:00:19.327Z,102585.13
2022-10-08T22:02:46.110Z,102589.06
2022-10-08T22:07:53.285Z,102586.53
2022-10-08T22:10:19.768Z,102585.78
2022-10-08T22:12:46.471Z,102588.84
2022-10-08T22:15:13.289Z,102582.41
2022-10-08T22:17:39.763Z,102583.75
2022-10-08T22:22:50.687Z,102580.81
2022-10-08T22:25:17.461Z,102580.97
2022-10-08T22:27:43.930Z,102578.75
2022-10-08T22:30:14.385Z,102582.22
2022-10-08T22:32:40.918Z,102585.69
2022-10-08T22:40:44.017Z,102586.75
2022-10-08T22:43:10.534Z,102585.03
2022-10-08T22:45:38.889Z,102585.72
2022-10-08T22:48:05.735Z,102582.91
2022-10-08T22:50:38.727Z,102583.63
2022-10-08T22:53:05.434Z,102579.28
2022-10-08T22:55:32.003Z,102579.25
2022-10-08T22:57:58.449Z,102578.75
2022-10-08T23:00:25.844Z,102587.31
2022-10-08T23:02:52.648Z,102579.88
2022-10-08T23:05:19.266Z,102576.81
2022-10-08T23:07:45.829Z,102570.50
2022-10-08T23:10:12.484Z,102572.84
2022-10-08T23:12:38.932Z,102568.13
2022-10-08T23:15:05.986Z,102566.88
2022-10-08T23:17:32.528Z,102569.72
2022-10-08T23:22:39.689Z,102579.34
2022-10-08T23:25:06.776Z,102575.38
2022-10-08T23:27:33.317Z,102570.78
2022-10-08T23:30:01.672Z,102566.34
2022-10-08T23:32:28.185Z,102564.63
2022-10-08T23:34:54.654Z,102574.25
2022-10-08T23:37:21.195Z,102573.78
2022-10-08T23:42:28.662Z,102574.25
2022-10-08T23:44:55.187Z,102570.28
2022-10-08T23:50:02.074Z,102573.41
2022-10-08T23:52:28.579Z,102568.69
2022-10-08T23:54:55.092Z,102569.94
2022-10-08T23:57:26.553Z,102572.16
2022-10-08T23:59:53.038Z,102566.47
